createdAt,value
2019-05-26T00:00:11.696Z,33.35
2019-05-26T00:02:41.134Z,33.63
2019-05-26T00:05:09.487Z,33.89
2019-05-26T00:07:37.814Z,33.74
2019-05-26T00:10:08.222Z,34.05
2019-05-26T00:12:36.986Z,33.78
2019-05-26T00:15:08.351Z,33.65
2019-05-26T00:17:36.609Z,33.65
2019-05-26T00:20:06.638Z,33.61
2019-05-26T00:22:34.937Z,33.22
2019-05-26T00:25:03.582Z,32.67
2019-05-26T00:27:31.847Z,33.22
2019-05-26T00:30:00.227Z,33.70
2019-05-26T00:32:28.603Z,33.54
2019-05-26T00:34:56.878Z,33.71
2019-05-26T00:37:25.839Z,34.06
2019-05-26T00:39:54.217Z,33.68
2019-05-26T00:42:22.571Z,33.23
2019-05-26T00:44:50.901Z,33.16
2019-05-26T00:47:19.132Z,32.17
2019-05-26T00:49:47.421Z,33.43
2019-05-26T00:52:15.678Z,32.88
2019-05-26T00:54:43.963Z,33.00
2019-05-26T00:57:12.231Z,33.02
2019-05-26T00:59:40.530Z,33.20
2019-05-26T01:02:08.909Z,33.05
2019-05-26T01:04:37.224Z,33.17
2019-05-26T01:07:05.633Z,33.27
2019-05-26T01:09:33.974Z,32.93
2019-05-26T01:12:04.449Z,32.52
2019-05-26T01:14:32.713Z,32.39
2019-05-26T01:17:01.004Z,32.59
2019-05-26T01:19:29.274Z,32.63
2019-05-26T01:21:57.558Z,33.19
2019-05-26T01:24:25.851Z,32.92
2019-05-26T01:26:54.128Z,32.84
2019-05-26T01:29:22.452Z,32.21
2019-05-26T01:31:50.842Z,32.82
2019-05-26T01:34:21.198Z,32.96
2019-05-26T01:36:49.485Z,32.72
2019-05-26T01:39:17.741Z,32.58
2019-05-26T01:41:46.011Z,32.29
2019-05-26T01:44:14.280Z,32.04
2019-05-26T01:46:42.525Z,32.03
2019-05-26T01:49:10.791Z,32.39
2019-05-26T01:51:39.157Z,32.64
2019-05-26T01:54:07.449Z,32.89
2019-05-26T01:56:35.718Z,32.88
2019-05-26T01:59:05.840Z,33.16
2019-05-26T02:01:34.167Z,32.83
2019-05-26T02:04:02.456Z,32.65
2019-05-26T02:06:30.712Z,32.34
2019-05-26T02:08:59.012Z,32.54
2019-05-26T02:11:27.300Z,32.27
2019-05-26T02:13:55.553Z,32.75
2019-05-26T02:16:23.815Z,32.30
2019-05-26T02:18:52.081Z,31.73
2019-05-26T02:21:20.354Z,31.83
2019-05-26T02:23:48.778Z,32.06
2019-05-26T02:26:19.686Z,30.18
2019-05-26T02:28:48.038Z,31.91
2019-05-26T02:31:16.317Z,31.59
2019-05-26T02:33:44.606Z,31.95
2019-05-26T02:36:12.869Z,31.31
2019-05-26T02:38:59.717Z,31.95
2019-05-26T02:41:11.121Z,31.69
2019-05-26T02:43:39.640Z,31.63
2019-05-26T02:46:07.909Z,31.54
2019-05-26T02:48:36.188Z,31.25
2019-05-26T02:51:04.542Z,31.14
2019-05-26T02:53:32.823Z,30.79
2019-05-26T02:56:01.308Z,31.43
2019-05-26T02:58:30.545Z,31.14
2019-05-26T03:00:58.904Z,31.46
2019-05-26T03:03:27.225Z,31.14
2019-05-26T03:05:56.253Z,31.25
2019-05-26T03:08:25.774Z,30.72
2019-05-26T03:10:54.795Z,29.85
2019-05-26T03:13:23.092Z,30.73
2019-05-26T03:15:52.087Z,31.41
2019-05-26T03:18:20.344Z,30.71
2019-05-26T03:20:48.802Z,30.32
2019-05-26T03:23:17.217Z,30.82
2019-05-26T03:25:46.517Z,31.14
2019-05-26T03:28:14.746Z,31.01
2019-05-26T03:30:43.001Z,31.23
2019-05-26T03:33:11.266Z,31.31
2019-05-26T03:35:39.607Z,30.45
2019-05-26T03:38:07.931Z,30.94
2019-05-26T03:40:36.270Z,31.74
2019-05-26T03:43:04.528Z,31.79
2019-05-26T03:45:45.258Z,31.87
2019-05-26T03:48:13.462Z,31.68
2019-05-26T03:50:41.719Z,31.67
2019-05-26T03:53:09.988Z,31.78
2019-05-26T03:55:38.261Z,31.44
2019-05-26T03:58:06.544Z,31.19
2019-05-26T04:00:34.816Z,31.18
2019-05-26T04:03:05.141Z,30.25
2019-05-26T04:05:33.427Z,30.49
2019-05-26T04:08:04.691Z,30.08
2019-05-26T04:10:31.756Z,29.65
2019-05-26T04:13:00.028Z,31.08
2019-05-26T04:18:02.496Z,31.40
2019-05-26T04:20:30.772Z,31.19
2019-05-26T04:23:00.237Z,30.94
2019-05-26T04:25:28.909Z,30.43
2019-05-26T04:27:58.857Z,31.04
2019-05-26T04:30:28.132Z,31.66
2019-05-26T04:32:56.445Z,31.49
2019-05-26T04:35:24.691Z,31.75
2019-05-26T04:37:52.948Z,31.15
2019-05-26T04:40:27.363Z,31.20
2019-05-26T04:42:51.348Z,30.79
2019-05-26T04:45:19.637Z,31.03
2019-05-26T04:47:47.938Z,31.30
2019-05-26T04:50:17.284Z,31.51
2019-05-26T04:53:04.459Z,31.56
2019-05-26T04:55:16.582Z,31.85
2019-05-26T04:57:44.922Z,31.90
2019-05-26T05:00:13.263Z,31.36
2019-05-26T05:02:46.083Z,32.11
2019-05-26T05:05:14.495Z,31.58
2019-05-26T05:07:42.859Z,31.61
2019-05-26T05:10:11.293Z,32.02
2019-05-26T05:12:39.596Z,31.55
2019-05-26T05:15:09.567Z,32.07
2019-05-26T05:17:37.900Z,32.34
2019-05-26T05:20:07.641Z,31.59
2019-05-26T05:22:37.937Z,31.82
2019-05-26T05:25:14.100Z,31.71
2019-05-26T05:27:37.935Z,31.16
2019-05-26T05:30:08.919Z,30.76
2019-05-26T05:32:37.210Z,31.43
2019-05-26T05:35:07.807Z,32.54
2019-05-26T05:37:36.795Z,31.62
2019-05-26T05:40:09.995Z,30.22
2019-05-26T05:42:38.312Z,30.34
2019-05-26T05:45:08.171Z,31.11
2019-05-26T05:47:36.509Z,30.40
2019-05-26T05:50:09.506Z,30.30
2019-05-26T05:52:37.833Z,29.49
2019-05-26T05:55:07.473Z,30.41
2019-05-26T05:57:35.889Z,31.83
2019-05-26T06:00:06.357Z,31.77
2019-05-26T06:02:36.751Z,30.30
2019-05-26T06:05:06.941Z,30.14
2019-05-26T06:07:35.295Z,31.26
2019-05-26T06:10:06.307Z,30.85
2019-05-26T06:12:34.717Z,31.42
2019-05-26T06:15:04.188Z,31.93
2019-05-26T06:17:32.457Z,30.01
2019-05-26T06:20:00.804Z,30.34
2019-05-26T06:22:29.175Z,30.61
2019-05-26T06:24:57.452Z,30.43
2019-05-26T06:27:25.717Z,29.87
2019-05-26T06:29:58.765Z,31.95
2019-05-26T06:32:24.211Z,30.98
2019-05-26T06:34:52.511Z,31.99
2019-05-26T06:37:20.866Z,31.76
2019-05-26T06:39:49.421Z,30.90
2019-05-26T06:42:18.657Z,32.07
2019-05-26T06:44:53.643Z,31.98
2019-05-26T06:47:18.262Z,30.81
2019-05-26T06:49:46.565Z,32.01
2019-05-26T06:52:14.826Z,31.30
2019-05-26T06:54:44.117Z,30.57
2019-05-26T06:57:12.412Z,30.02
2019-05-26T06:59:40.839Z,31.17
2019-05-26T07:02:09.176Z,31.11
2019-05-26T07:04:38.557Z,31.55
2019-05-26T07:07:06.864Z,29.86
2019-05-26T07:09:37.794Z,30.61
2019-05-26T07:12:06.158Z,31.75
2019-05-26T07:14:34.474Z,31.28
2019-05-26T07:17:02.738Z,32.31
2019-05-26T07:19:31.033Z,31.91
2019-05-26T07:21:59.309Z,31.72
2019-05-26T07:24:29.438Z,31.59
2019-05-26T07:26:58.496Z,31.84
2019-05-26T07:29:26.794Z,32.43
2019-05-26T07:31:55.166Z,33.08
2019-05-26T07:34:23.402Z,32.63
2019-05-26T07:36:51.690Z,30.71
2019-05-26T07:39:20.024Z,31.11
2019-05-26T07:41:48.368Z,31.74
2019-05-26T07:44:16.671Z,30.46
2019-05-26T07:46:44.938Z,31.43
2019-05-26T07:49:13.296Z,32.15
2019-05-26T07:51:41.588Z,32.11
2019-05-26T07:54:24.602Z,31.05
2019-05-26T07:56:41.108Z,31.34
2019-05-26T07:59:09.365Z,31.08
2019-05-26T08:01:37.671Z,30.48
2019-05-26T08:04:06.002Z,30.95
2019-05-26T08:06:34.268Z,31.46
2019-05-26T08:09:02.552Z,30.80
2019-05-26T08:11:30.818Z,31.20
2019-05-26T08:13:59.117Z,31.29
2019-05-26T08:16:32.166Z,31.91
2019-05-26T08:19:08.320Z,30.88
2019-05-26T08:21:46.146Z,31.38
2019-05-26T08:24:14.498Z,32.51
2019-05-26T08:26:45.780Z,32.08
2019-05-26T08:29:14.067Z,31.68
2019-05-26T08:31:43.396Z,32.76
2019-05-26T08:34:11.719Z,33.33
2019-05-26T08:36:40.013Z,32.55
2019-05-26T08:39:09.597Z,32.41
2019-05-26T08:41:37.894Z,32.36
2019-05-26T08:44:06.234Z,33.27
2019-05-26T08:46:34.619Z,32.76
2019-05-26T08:49:02.884Z,31.22
2019-05-26T08:51:31.161Z,32.40
2019-05-26T08:53:59.432Z,32.04
2019-05-26T08:56:29.772Z,33.02
2019-05-26T08:58:58.133Z,30.80
2019-05-26T09:01:26.525Z,30.55
2019-05-26T09:03:54.796Z,33.12
2019-05-26T09:06:23.063Z,33.05
2019-05-26T09:08:52.230Z,32.60
2019-05-26T09:11:21.651Z,32.35
2019-05-26T09:13:49.955Z,31.79
2019-05-26T09:16:18.228Z,31.09
2019-05-26T09:18:46.518Z,33.17
2019-05-26T09:21:14.904Z,33.63
2019-05-26T09:23:43.161Z,34.79
2019-05-26T09:26:11.423Z,34.44
2019-05-26T09:28:39.720Z,33.03
2019-05-26T09:31:07.983Z,33.59
2019-05-26T09:33:37.392Z,33.39
2019-05-26T09:36:05.671Z,34.28
2019-05-26T09:38:37.216Z,33.34
2019-05-26T09:41:05.502Z,34.58
2019-05-26T09:43:33.788Z,35.16
2019-05-26T09:46:02.137Z,32.78
2019-05-26T09:48:30.414Z,35.01
2019-05-26T09:50:58.757Z,34.38
2019-05-26T09:53:27.108Z,32.87
2019-05-26T09:55:55.370Z,34.01
2019-05-26T09:58:23.704Z,33.34
2019-05-26T10:00:52.039Z,33.24
2019-05-26T10:03:20.400Z,32.55
2019-05-26T10:05:48.689Z,31.34
2019-05-26T10:08:17.004Z,31.81
2019-05-26T10:10:45.272Z,33.89
2019-05-26T10:13:13.553Z,34.32
2019-05-26T10:15:41.819Z,32.99
2019-05-26T10:18:10.107Z,33.78
2019-05-26T10:20:38.406Z,34.09
2019-05-26T10:23:06.693Z,34.69
2019-05-26T10:25:34.998Z,32.32
2019-05-26T10:28:03.269Z,32.96
2019-05-26T10:30:31.529Z,34.17
2019-05-26T10:32:59.804Z,34.75
2019-05-26T10:35:29.115Z,32.07
2019-05-26T10:37:57.374Z,34.70
2019-05-26T10:40:25.635Z,35.62
2019-05-26T10:42:53.942Z,36.71
2019-05-26T10:45:23.180Z,35.26
2019-05-26T10:47:51.518Z,33.92
2019-05-26T10:50:19.847Z,35.04
2019-05-26T10:52:48.219Z,34.40
2019-05-26T10:55:16.671Z,34.00
2019-05-26T10:57:44.974Z,35.52
2019-05-26T11:00:13.315Z,34.02
2019-05-26T11:02:41.602Z,34.46
2019-05-26T11:05:18.846Z,32.93
2019-05-26T11:07:42.565Z,34.32
2019-05-26T11:10:10.905Z,33.75
2019-05-26T11:12:39.234Z,34.74
2019-05-26T11:15:08.478Z,33.64
2019-05-26T11:17:36.898Z,35.40
2019-05-26T11:20:10.439Z,35.50
2019-05-26T11:22:39.740Z,36.08
2019-05-26T11:25:08.340Z,37.10
2019-05-26T11:27:36.712Z,36.76
2019-05-26T11:30:09.991Z,36.01
2019-05-26T11:32:38.426Z,35.60
2019-05-26T11:35:07.059Z,37.31
2019-05-26T11:37:37.439Z,34.89
2019-05-26T11:40:07.337Z,37.40
2019-05-26T11:42:36.582Z,37.65
2019-05-26T11:45:07.101Z,38.01
2019-05-26T11:47:35.402Z,37.86
2019-05-26T11:50:08.490Z,38.00
2019-05-26T11:52:36.794Z,40.42
2019-05-26T11:55:08.458Z,39.97
2019-05-26T11:57:37.511Z,39.13
2019-05-26T12:00:07.761Z,36.83
2019-05-26T12:02:36.468Z,39.84
2019-05-26T12:05:10.230Z,37.59
2019-05-26T12:07:43.070Z,38.49
2019-05-26T12:10:14.473Z,37.85
2019-05-26T12:12:42.902Z,37.12
2019-05-26T12:15:12.135Z,36.03
2019-05-26T12:17:40.559Z,35.45
2019-05-26T12:20:09.389Z,38.46
2019-05-26T12:22:37.648Z,39.59
2019-05-26T12:25:07.332Z,39.36
2019-05-26T12:27:35.724Z,39.63
2019-05-26T12:30:06.559Z,41.18
2019-05-26T12:32:34.895Z,40.87
2019-05-26T12:35:04.358Z,39.03
2019-05-26T12:37:32.714Z,40.11
2019-05-26T12:40:00.979Z,40.90
2019-05-26T12:42:29.379Z,40.44
2019-05-26T12:44:57.643Z,40.34
2019-05-26T12:47:25.914Z,39.90
2019-05-26T12:49:54.319Z,41.48
2019-05-26T12:52:22.715Z,42.22
2019-05-26T12:54:50.983Z,42.20
2019-05-26T12:57:19.338Z,41.06
2019-05-26T12:59:47.688Z,39.75
2019-05-26T13:02:15.975Z,39.75
2019-05-26T13:04:44.306Z,39.53
2019-05-26T13:07:12.636Z,40.03
2019-05-26T13:09:41.845Z,40.53
2019-05-26T13:12:10.118Z,40.49
2019-05-26T13:14:38.469Z,45.17
2019-05-26T13:17:06.815Z,45.34
2019-05-26T13:19:35.118Z,44.84
2019-05-26T13:22:03.814Z,44.62
2019-05-26T13:24:32.085Z,41.92
2019-05-26T13:27:01.408Z,40.10
2019-05-26T13:29:29.673Z,38.74
2019-05-26T13:31:57.939Z,41.78
2019-05-26T13:34:26.244Z,43.04
2019-05-26T13:36:54.549Z,42.25
2019-05-26T13:39:22.826Z,40.38
2019-05-26T13:41:52.078Z,41.56
2019-05-26T13:44:20.368Z,41.42
2019-05-26T13:46:48.649Z,44.74
2019-05-26T13:49:16.951Z,43.73
2019-05-26T13:51:45.384Z,41.41
2019-05-26T13:54:14.604Z,42.35
2019-05-26T13:56:42.899Z,43.79
2019-05-26T13:59:11.232Z,43.69
2019-05-26T14:01:41.545Z,42.16
2019-05-26T14:04:09.866Z,43.13
2019-05-26T14:06:38.089Z,45.56
2019-05-26T14:09:08.708Z,43.94
2019-05-26T14:11:37.050Z,41.64
2019-05-26T14:14:05.865Z,43.95
2019-05-26T14:16:37.858Z,42.43
2019-05-26T14:19:08.796Z,39.86
2019-05-26T14:21:37.125Z,40.10
2019-05-26T14:24:05.961Z,42.23
2019-05-26T14:26:34.335Z,39.41
2019-05-26T14:29:02.606Z,40.09
2019-05-26T14:31:31.392Z,38.10
2019-05-26T14:33:59.646Z,42.73
2019-05-26T14:36:27.961Z,41.17
2019-05-26T14:38:56.211Z,41.78
2019-05-26T14:41:24.481Z,41.36
2019-05-26T14:43:52.760Z,40.35
2019-05-26T14:46:21.017Z,39.88
2019-05-26T14:48:49.302Z,40.13
2019-05-26T14:51:17.625Z,42.34
2019-05-26T14:53:45.880Z,40.82
2019-05-26T14:56:16.193Z,39.35
2019-05-26T14:58:44.547Z,38.07
2019-05-26T15:01:12.918Z,40.79
2019-05-26T15:03:41.208Z,43.14
2019-05-26T15:06:09.578Z,44.73
2019-05-26T15:08:37.862Z,43.50
2019-05-26T15:11:07.052Z,42.53
2019-05-26T15:13:39.122Z,45.49
2019-05-26T15:16:10.260Z,47.77
2019-05-26T15:18:38.525Z,47.30
2019-05-26T15:21:06.870Z,45.21
2019-05-26T15:23:35.102Z,47.04
2019-05-26T15:26:05.475Z,47.26
2019-05-26T15:28:33.417Z,47.32
2019-05-26T15:31:01.724Z,43.06
2019-05-26T15:33:34.180Z,44.86
2019-05-26T15:36:03.452Z,41.79
2019-05-26T15:38:42.352Z,43.18
2019-05-26T15:41:09.141Z,44.87
2019-05-26T15:43:43.340Z,43.84
2019-05-26T15:46:24.085Z,44.09
2019-05-26T15:48:41.828Z,44.81
2019-05-26T15:51:12.073Z,43.54
2019-05-26T15:53:40.364Z,41.70
2019-05-26T15:56:08.643Z,42.79
2019-05-26T15:58:37.668Z,44.71
2019-05-26T16:01:06.030Z,44.28
2019-05-26T16:03:34.303Z,44.14
2019-05-26T16:06:02.666Z,46.24
2019-05-26T16:08:30.947Z,44.51
2019-05-26T16:10:59.214Z,41.45
2019-05-26T16:13:27.531Z,42.24
2019-05-26T16:15:56.794Z,39.13
2019-05-26T16:18:25.100Z,40.91
2019-05-26T16:21:03.071Z,38.69
2019-05-26T16:23:32.259Z,39.11
2019-05-26T16:26:00.542Z,39.62
2019-05-26T16:28:28.949Z,38.10
2019-05-26T16:30:57.219Z,38.03
2019-05-26T16:33:25.522Z,38.22
2019-05-26T16:35:55.611Z,38.82
2019-05-26T16:38:23.920Z,38.85
2019-05-26T16:40:52.243Z,37.87
2019-05-26T16:43:20.496Z,37.36
2019-05-26T16:45:56.146Z,38.49
2019-05-26T16:48:18.734Z,36.54
2019-05-26T16:50:47.057Z,38.32
2019-05-26T16:53:15.338Z,38.79
2019-05-26T16:55:44.353Z,37.82
2019-05-26T16:58:12.712Z,38.47
2019-05-26T17:00:41.029Z,37.45
2019-05-26T17:03:09.294Z,37.93
2019-05-26T17:05:37.592Z,37.96
2019-05-26T17:08:05.936Z,38.90
2019-05-26T17:10:34.238Z,36.75
2019-05-26T17:13:02.530Z,36.42
2019-05-26T17:15:30.838Z,36.82
2019-05-26T17:17:59.184Z,36.63
2019-05-26T17:20:27.516Z,37.03
2019-05-26T17:22:56.890Z,37.59
2019-05-26T17:25:25.245Z,38.04
2019-05-26T17:27:53.549Z,38.46
2019-05-26T17:30:22.365Z,37.75
2019-05-26T17:32:50.862Z,35.40
2019-05-26T17:35:19.292Z,35.96
2019-05-26T17:37:47.569Z,37.05
2019-05-26T17:40:15.895Z,36.88
2019-05-26T17:42:44.186Z,35.03
2019-05-26T17:45:13.205Z,35.16
2019-05-26T17:47:44.503Z,34.98
2019-05-26T17:50:12.928Z,36.54
2019-05-26T17:52:41.256Z,37.03
2019-05-26T17:55:10.121Z,37.16
2019-05-26T17:57:40.365Z,35.74
2019-05-26T18:00:17.842Z,37.12
2019-05-26T18:02:46.229Z,36.45
2019-05-26T18:05:14.730Z,36.46
2019-05-26T18:07:43.043Z,37.38
2019-05-26T18:10:11.738Z,36.16
2019-05-26T18:12:40.988Z,36.06
2019-05-26T18:15:10.325Z,35.91
2019-05-26T18:17:46.956Z,36.67
2019-05-26T18:20:08.869Z,37.56
2019-05-26T18:22:39.294Z,36.03
2019-05-26T18:25:08.527Z,35.23
2019-05-26T18:27:36.866Z,35.66
2019-05-26T18:30:10.170Z,35.34
2019-05-26T18:32:40.417Z,36.07
2019-05-26T18:35:08.909Z,36.71
2019-05-26T18:37:37.243Z,36.46
2019-05-26T18:40:06.793Z,36.65
2019-05-26T18:42:35.059Z,37.88
2019-05-26T18:45:04.495Z,35.45
2019-05-26T18:47:34.850Z,35.77
2019-05-26T18:50:03.505Z,36.63
2019-05-26T18:52:33.943Z,35.53
2019-05-26T18:55:03.236Z,35.32
2019-05-26T18:57:31.517Z,36.46
2019-05-26T18:59:59.832Z,36.06
2019-05-26T19:02:28.274Z,35.86
2019-05-26T19:04:58.667Z,35.56
2019-05-26T19:07:27.021Z,36.08
2019-05-26T19:09:55.303Z,35.98
2019-05-26T19:12:23.579Z,34.99
2019-05-26T19:14:58.223Z,34.91
2019-05-26T19:17:29.158Z,34.57
2019-05-26T19:19:57.541Z,35.11
2019-05-26T19:22:25.900Z,34.77
2019-05-26T19:24:54.161Z,34.28
2019-05-26T19:27:22.516Z,34.28
2019-05-26T19:29:52.859Z,34.73
2019-05-26T19:32:21.135Z,34.71
2019-05-26T19:34:49.432Z,34.81
2019-05-26T19:37:17.696Z,33.89
2019-05-26T19:39:46.022Z,34.37
2019-05-26T19:42:14.294Z,34.44
2019-05-26T19:44:43.576Z,33.94
2019-05-26T19:47:11.847Z,34.11
2019-05-26T19:49:40.133Z,34.08
2019-05-26T19:52:08.512Z,33.88
2019-05-26T19:54:36.797Z,33.76
2019-05-26T19:57:05.161Z,33.78
2019-05-26T19:59:47.466Z,33.93
2019-05-26T20:02:18.608Z,34.39
2019-05-26T20:04:45.739Z,33.97
2019-05-26T20:07:14.931Z,34.88
2019-05-26T20:09:43.233Z,33.58
2019-05-26T20:12:11.506Z,34.14
2019-05-26T20:14:39.967Z,34.79
2019-05-26T20:17:08.266Z,35.45
2019-05-26T20:19:36.642Z,34.60
2019-05-26T20:22:05.015Z,33.81
2019-05-26T20:24:34.271Z,33.95
2019-05-26T20:27:02.588Z,33.54
2019-05-26T20:29:30.940Z,33.60
2019-05-26T20:31:59.209Z,32.93
2019-05-26T20:34:27.463Z,33.50
2019-05-26T20:37:05.205Z,32.96
2019-05-26T20:39:33.487Z,33.75
2019-05-26T20:42:01.840Z,33.50
2019-05-26T20:44:33.737Z,33.47
2019-05-26T20:47:03.222Z,33.13
2019-05-26T20:49:44.414Z,32.13
2019-05-26T20:52:02.652Z,33.36
2019-05-26T20:54:32.916Z,32.43
2019-05-26T20:57:01.202Z,33.53
2019-05-26T20:59:29.509Z,33.60
2019-05-26T21:02:01.538Z,33.48
2019-05-26T21:04:31.760Z,32.00
2019-05-26T21:07:00.057Z,31.38
2019-05-26T21:09:28.336Z,31.23
2019-05-26T21:12:03.611Z,32.03
2019-05-26T21:14:32.851Z,32.27
2019-05-26T21:17:02.198Z,32.31
2019-05-26T21:19:32.446Z,32.13
2019-05-26T21:22:00.793Z,32.13
2019-05-26T21:24:29.063Z,32.20
2019-05-26T21:26:57.331Z,32.05
2019-05-26T21:29:25.620Z,31.63
2019-05-26T21:31:53.910Z,31.54
2019-05-26T21:34:22.190Z,32.21
2019-05-26T21:36:50.463Z,31.78
2019-05-26T21:39:26.205Z,33.13
2019-05-26T21:41:54.533Z,33.61
2019-05-26T21:44:22.823Z,32.44
2019-05-26T21:46:57.235Z,32.52
2019-05-26T21:49:25.543Z,33.16
2019-05-26T21:51:54.897Z,32.59
2019-05-26T21:54:23.248Z,32.03
2019-05-26T21:56:57.396Z,32.79
2019-05-26T21:59:25.729Z,33.19
2019-05-26T22:01:54.099Z,32.22
2019-05-26T22:04:22.378Z,33.83
2019-05-26T22:06:50.808Z,33.26
2019-05-26T22:09:20.245Z,32.96
2019-05-26T22:11:48.607Z,32.49
2019-05-26T22:14:18.944Z,31.90
2019-05-26T22:16:48.160Z,32.89
2019-05-26T22:19:16.466Z,32.06
2019-05-26T22:21:44.727Z,32.10
2019-05-26T22:24:14.038Z,31.82
2019-05-26T22:26:42.342Z,31.10
2019-05-26T22:29:13.280Z,31.81
2019-05-26T22:31:51.333Z,32.98
2019-05-26T22:34:19.813Z,31.76
2019-05-26T22:36:50.143Z,32.01
2019-05-26T22:39:18.507Z,31.62
2019-05-26T22:41:46.801Z,31.20
2019-05-26T22:44:15.155Z,32.11
2019-05-26T22:46:43.480Z,32.17
2019-05-26T22:49:12.705Z,32.13
2019-05-26T22:51:40.989Z,32.27
2019-05-26T22:54:11.354Z,32.82
2019-05-26T22:56:39.635Z,32.59
2019-05-26T22:59:08.110Z,32.14
2019-05-26T23:01:37.690Z,32.26
2019-05-26T23:04:10.057Z,32.49
2019-05-26T23:06:44.367Z,33.10
2019-05-26T23:09:15.604Z,31.82
2019-05-26T23:11:43.957Z,32.15
2019-05-26T23:14:12.238Z,31.30
2019-05-26T23:16:40.514Z,31.25
2019-05-26T23:19:18.827Z,31.43
2019-05-26T23:21:38.876Z,31.38
2019-05-26T23:24:13.101Z,32.05
2019-05-26T23:26:41.390Z,30.52
2019-05-26T23:29:09.672Z,32.47
2019-05-26T23:31:38.950Z,31.20
2019-05-26T23:34:07.245Z,30.77
2019-05-26T23:36:35.557Z,31.46
2019-05-26T23:39:05.424Z,31.20
2019-05-26T23:41:33.727Z,31.60
2019-05-26T23:44:02.023Z,30.61
2019-05-26T23:46:30.279Z,30.46
2019-05-26T23:48:58.548Z,30.89
2019-05-26T23:51:26.820Z,30.40
2019-05-26T23:53:55.104Z,30.63
2019-05-26T23:56:23.388Z,30.68
2019-05-26T23:59:00.640Z,30.26
